sensor_id;sensor_type;location;lat;lon;timestamp;P1;durP1;ratioP1;P2;durP2;ratioP2
57615;SDS011;43816;52.054;-9.494;2023-03-14T00:00:08;3.50;;;1.80;;
57615;SDS011;43816;52.054;-9.494;2023-03-14T00:00:21;3.45;;;1.90;;
57615;SDS011;43816;52.054;-9.494;2023-03-14T00:00:32;3.10;;;1.70;;
57615;SDS011;43816;52.054;-9.494;2023-03-14T00:00:45;3.30;;;1.80;;
57615;SDS011;43816;52.054;-9.494;2023-03-14T00:00:55;3.08;;;1.48;;
57615;SDS011;43816;52.054;-9.494;2023-03-14T00:01:16;3.50;;;1.53;;
57615;SDS011;43816;52.054;-9.494;2023-03-14T00:01:28;4.03;;;1.75;;
57615;SDS011;43816;52.054;-9.494;2023-03-14T00:01:39;3.67;;;1.73;;
57615;SDS011;43816;52.054;-9.494;2023-03-14T00:01:49;3.30;;;1.73;;
57615;SDS011;43816;52.054;-9.494;2023-03-14T00:01:59;3.42;;;1.60;;
57615;SDS011;43816;52.054;-9.494;2023-03-14T00:02:12;3.93;;;1.57;;
57615;SDS011;43816;52.054;-9.494;2023-03-14T00:02:23;4.38;;;1.70;;
57615;SDS011;43816;52.054;-9.494;2023-03-14T00:02:33;4.22;;;1.70;;
57615;SDS011;43816;52.054;-9.494;2023-03-14T00:02:44;3.88;;;1.52;;
57615;SDS011;43816;52.054;-9.494;2023-03-14T00:02:54;3.97;;;1.60;;
57615;SDS011;43816;52.054;-9.494;2023-03-14T00:03:04;3.50;;;1.47;;
57615;SDS011;43816;52.054;-9.494;2023-03-14T00:03:15;3.17;;;1.52;;
57615;SDS011;43816;52.054;-9.494;2023-03-14T00:03:25;2.90;;;1.50;;
57615;SDS011;43816;52.054;-9.494;2023-03-14T00:03:38;3.90;;;1.70;;
57615;SDS011;43816;52.054;-9.494;2023-03-14T00:03:49;3.85;;;1.67;;
57615;SDS011;43816;52.054;-9.494;2023-03-14T00:04:00;3.70;;;1.70;;
57615;SDS011;43816;52.054;-9.494;2023-03-14T00:04:10;2.90;;;1.60;;
57615;SDS011;43816;52.054;-9.494;2023-03-14T00:04:20;2.60;;;1.50;;
57615;SDS011;43816;52.054;-9.494;2023-03-14T00:04:31;2.30;;;1.40;;
57615;SDS011;43816;52.054;-9.494;2023-03-14T00:04:41;2.40;;;1.50;;
57615;SDS011;43816;52.054;-9.494;2023-03-14T00:04:53;2.60;;;1.63;;
57615;SDS011;43816;52.054;-9.494;2023-03-14T00:05:04;3.08;;;1.65;;
57615;SDS011;43816;52.054;-9.494;2023-03-14T00:05:15;3.13;;;1.50;;
57615;SDS011;43816;52.054;-9.494;2023-03-14T00:05:25;3.73;;;1.63;;
57615;SDS011;43816;52.054;-9.494;2023-03-14T00:05:36;3.60;;;1.77;;
57615;SDS011;43816;52.054;-9.494;2023-03-14T00:05:46;3.40;;;1.70;;
57615;SDS011;43816;52.054;-9.494;2023-03-14T00:05:56;2.90;;;1.67;;
57615;SDS011;43816;52.054;-9.494;2023-03-14T00:06:11;2.92;;;1.60;;
57615;SDS011;43816;52.054;-9.494;2023-03-14T00:06:22;3.13;;;1.60;;
57615;SDS011;43816;52.054;-9.494;2023-03-14T00:06:34;3.42;;;1.70;;
57615;SDS011;43816;52.054;-9.494;2023-03-14T00:06:44;3.90;;;1.60;;
57615;SDS011;43816;52.054;-9.494;2023-03-14T00:06:55;4.13;;;1.63;;
57615;SDS011;43816;52.054;-9.494;2023-03-14T00:07:05;4.22;;;1.60;;
57615;SDS011;43816;52.054;-9.494;2023-03-14T00:07:15;3.67;;;1.73;;
57615;SDS011;43816;52.054;-9.494;2023-03-14T00:07:25;3.23;;;1.70;;
57615;SDS011;43816;52.054;-9.494;2023-03-14T00:07:36;2.70;;;1.60;;
57615;SDS011;43816;52.054;-9.494;2023-03-14T00:07:48;2.17;;;1.40;;
57615;SDS011;43816;52.054;-9.494;2023-03-14T00:07:58;1.90;;;1.30;;
57615;SDS011;43816;52.054;-9.494;2023-03-14T00:08:08;2.53;;;1.50;;
57615;SDS011;43816;52.054;-9.494;2023-03-14T00:08:19;2.80;;;1.48;;
57615;SDS011;43816;52.054;-9.494;2023-03-14T00:08:29;3.20;;;1.70;;
57615;SDS011;43816;52.054;-9.494;2023-03-14T00:08:41;3.53;;;2.00;;
57615;SDS011;43816;52.054;-9.494;2023-03-14T00:08:52;4.00;;;2.13;;
57615;SDS011;43816;52.054;-9.494;2023-03-14T00:09:03;4.78;;;2.20;;
57615;SDS011;43816;52.054;-9.494;2023-03-14T00:09:13;4.50;;;1.90;;
57615;SDS011;43816;52.054;-9.494;2023-03-14T00:09:23;4.40;;;1.80;;
57615;SDS011;43816;52.054;-9.494;2023-03-14T00:09:34;3.53;;;1.60;;
57615;SDS011;43816;52.054;-9.494;2023-03-14T00:09:44;3.30;;;1.50;;
57615;SDS011;43816;52.054;-9.494;2023-03-14T00:09:54;2.90;;;1.57;;
57615;SDS011;43816;52.054;-9.494;2023-03-14T00:10:06;3.40;;;1.70;;
57615;SDS011;43816;52.054;-9.494;2023-03-14T00:10:18;3.08;;;1.65;;
57615;SDS011;43816;52.054;-9.494;2023-03-14T00:10:29;3.25;;;1.67;;
57615;SDS011;43816;52.054;-9.494;2023-03-14T00:10:39;3.00;;;1.60;;
57615;SDS011;43816;52.054;-9.494;2023-03-14T00:10:49;2.75;;;1.65;;
57615;SDS011;43816;52.054;-9.494;2023-03-14T00:11:07;2.57;;;1.40;;
57615;SDS011;43816;52.054;-9.494;2023-03-14T00:11:58;3.85;;;1.73;;
57615;SDS011;43816;52.054;-9.494;2023-03-14T00:12:09;3.37;;;1.70;;
57615;SDS011;43816;52.054;-9.494;2023-03-14T00:12:19;2.92;;;1.60;;
57615;SDS011;43816;52.054;-9.494;2023-03-14T00:12:33;2.37;;;1.60;;
57615;SDS011;43816;52.054;-9.494;2023-03-14T00:12:43;3.13;;;1.83;;
57615;SDS011;43816;52.054;-9.494;2023-03-14T00:12:54;2.80;;;1.80;;
57615;SDS011;43816;52.054;-9.494;2023-03-14T00:13:04;2.70;;;1.77;;
57615;SDS011;43816;52.054;-9.494;2023-03-14T00:13:15;3.03;;;1.57;;
57615;SDS011;43816;52.054;-9.494;2023-03-14T00:13:25;3.47;;;1.60;;
57615;SDS011;43816;52.054;-9.494;2023-03-14T00:13:35;3.17;;;1.50;;
57615;SDS011;43816;52.054;-9.494;2023-03-14T00:13:47;2.78;;;1.55;;
57615;SDS011;43816;52.054;-9.494;2023-03-14T00:14:01;3.00;;;1.50;;
57615;SDS011;43816;52.054;-9.494;2023-03-14T00:14:11;2.97;;;1.50;;
57615;SDS011;43816;52.054;-9.494;2023-03-14T00:14:21;2.77;;;1.50;;
57615;SDS011;43816;52.054;-9.494;2023-03-14T00:14:32;2.53;;;1.50;;
57615;SDS011;43816;52.054;-9.494;2023-03-14T00:14:42;2.57;;;1.50;;
57615;SDS011;43816;52.054;-9.494;2023-03-14T00:15:02;2.35;;;1.48;;
57615;SDS011;43816;52.054;-9.494;2023-03-14T00:15:15;2.72;;;1.38;;
57615;SDS011;43816;52.054;-9.494;2023-03-14T00:15:26;3.17;;;1.57;;
57615;SDS011;43816;52.054;-9.494;2023-03-14T00:15:36;2.97;;;1.60;;
57615;SDS011;43816;52.054;-9.494;2023-03-14T00:15:46;2.95;;;1.45;;
57615;SDS011;43816;52.054;-9.494;2023-03-14T00:16:01;2.60;;;1.43;;
57615;SDS011;43816;52.054;-9.494;2023-03-14T00:16:13;2.63;;;1.52;;
57615;SDS011;43816;52.054;-9.494;2023-03-14T00:16:23;2.70;;;1.50;;
57615;SDS011;43816;52.054;-9.494;2023-03-14T00:16:34;2.60;;;1.40;;
57615;SDS011;43816;52.054;-9.494;2023-03-14T00:16:47;2.63;;;1.40;;
57615;SDS011;43816;52.054;-9.494;2023-03-14T00:16:58;3.25;;;1.38;;
57615;SDS011;43816;52.054;-9.494;2023-03-14T00:17:13;4.65;;;1.48;;
57615;SDS011;43816;52.054;-9.494;2023-03-14T00:17:24;4.18;;;1.60;;
57615;SDS011;43816;52.054;-9.494;2023-03-14T00:17:34;2.37;;;1.40;;
57615;SDS011;43816;52.054;-9.494;2023-03-14T00:17:45;2.40;;;1.30;;
57615;SDS011;43816;52.054;-9.494;2023-03-14T00:17:55;2.50;;;1.33;;
57615;SDS011;43816;52.054;-9.494;2023-03-14T00:18:05;2.37;;;1.33;;
57615;SDS011;43816;52.054;-9.494;2023-03-14T00:18:16;2.30;;;1.40;;
57615;SDS011;43816;52.054;-9.494;2023-03-14T00:18:27;2.38;;;1.38;;
57615;SDS011;43816;52.054;-9.494;2023-03-14T00:18:40;2.72;;;1.50;;
57615;SDS011;43816;52.054;-9.494;2023-03-14T00:18:51;2.55;;;1.50;;
57615;SDS011;43816;52.054;-9.494;2023-03-14T00:19:01;2.70;;;1.47;;
57615;SDS011;43816;52.054;-9.494;2023-03-14T00:19:12;3.30;;;1.40;;
57615;SDS011;43816;52.054;-9.494;2023-03-14T00:19:22;4.07;;;1.40;;
57615;SDS011;43816;52.054;-9.494;2023-03-14T00:19:32;3.87;;;1.40;;
57615;SDS011;43816;52.054;-9.494;2023-03-14T00:19:43;3.72;;;1.48;;
57615;SDS011;43816;52.054;-9.494;2023-03-14T00:19:53;3.07;;;1.53;;
57615;SDS011;43816;52.054;-9.494;2023-03-14T00:20:04;3.23;;;1.53;;
57615;SDS011;43816;52.054;-9.494;2023-03-14T00:20:16;3.74;;;1.70;;
57615;SDS011;43816;52.054;-9.494;2023-03-14T00:20:27;3.13;;;1.67;;
57615;SDS011;43816;52.054;-9.494;2023-03-14T00:20:37;2.53;;;1.50;;
57615;SDS011;43816;52.054;-9.494;2023-03-14T00:20:47;2.40;;;1.40;;
57615;SDS011;43816;52.054;-9.494;2023-03-14T00:20:58;2.38;;;1.38;;
57615;SDS011;43816;52.054;-9.494;2023-03-14T00:21:10;2.47;;;1.40;;
57615;SDS011;43816;52.054;-9.494;2023-03-14T00:21:28;2.53;;;1.35;;
57615;SDS011;43816;52.054;-9.494;2023-03-14T00:21:38;2.70;;;1.30;;
57615;SDS011;43816;52.054;-9.494;2023-03-14T00:21:48;3.03;;;1.20;;
57615;SDS011;43816;52.054;-9.494;2023-03-14T00:22:08;2.97;;;1.10;;
57615;SDS011;43816;52.054;-9.494;2023-03-14T00:22:18;2.83;;;1.10;;
57615;SDS011;43816;52.054;-9.494;2023-03-14T00:22:28;3.10;;;1.25;;
57615;SDS011;43816;52.054;-9.494;2023-03-14T00:22:39;2.57;;;1.30;;
57615;SDS011;43816;52.054;-9.494;2023-03-14T00:22:50;2.10;;;1.27;;
57615;SDS011;43816;52.054;-9.494;2023-03-14T00:23:00;2.38;;;1.30;;
57615;SDS011;43816;52.054;-9.494;2023-03-14T00:23:11;2.33;;;1.30;;
57615;SDS011;43816;52.054;-9.494;2023-03-14T00:23:21;2.70;;;1.40;;
57615;SDS011;43816;52.054;-9.494;2023-03-14T00:23:32;2.00;;;1.30;;
57615;SDS011;43816;52.054;-9.494;2023-03-14T00:23:44;2.13;;;1.25;;
57615;SDS011;43816;52.054;-9.494;2023-03-14T00:23:54;2.00;;;1.25;;
57615;SDS011;43816;52.054;-9.494;2023-03-14T00:24:05;2.10;;;1.33;;
57615;SDS011;43816;52.054;-9.494;2023-03-14T00:24:15;3.00;;;1.40;;
57615;SDS011;43816;52.054;-9.494;2023-03-14T00:24:25;3.07;;;1.37;;
57615;SDS011;43816;52.054;-9.494;2023-03-14T00:24:36;3.47;;;1.45;;
57615;SDS011;43816;52.054;-9.494;2023-03-14T00:24:46;3.03;;;1.40;;
57615;SDS011;43816;52.054;-9.494;2023-03-14T00:24:56;2.53;;;1.27;;
57615;SDS011;43816;52.054;-9.494;2023-03-14T00:25:08;2.10;;;1.20;;
57615;SDS011;43816;52.054;-9.494;2023-03-14T00:25:19;2.53;;;1.50;;
57615;SDS011;43816;52.054;-9.494;2023-03-14T00:25:30;2.85;;;1.50;;
57615;SDS011;43816;52.054;-9.494;2023-03-14T00:25:40;2.67;;;1.37;;
57615;SDS011;43816;52.054;-9.494;2023-03-14T00:25:50;2.57;;;1.20;;
57615;SDS011;43816;52.054;-9.494;2023-03-14T00:26:05;2.92;;;1.25;;
57615;SDS011;43816;52.054;-9.494;2023-03-14T00:26:18;3.22;;;1.40;;
57615;SDS011;43816;52.054;-9.494;2023-03-14T00:26:29;2.92;;;1.58;;
57615;SDS011;43816;52.054;-9.494;2023-03-14T00:26:39;2.88;;;1.60;;
57615;SDS011;43816;52.054;-9.494;2023-03-14T00:26:50;2.63;;;1.47;;
57615;SDS011;43816;52.054;-9.494;2023-03-14T00:27:00;2.77;;;1.33;;
57615;SDS011;43816;52.054;-9.494;2023-03-14T00:27:10;2.10;;;1.20;;
57615;SDS011;43816;52.054;-9.494;2023-03-14T00:27:20;2.20;;;1.30;;
57615;SDS011;43816;52.054;-9.494;2023-03-14T00:27:31;2.20;;;1.30;;
57615;SDS011;43816;52.054;-9.494;2023-03-14T00:27:42;2.85;;;1.25;;
57615;SDS011;43816;52.054;-9.494;2023-03-14T00:27:52;2.87;;;1.20;;
57615;SDS011;43816;52.054;-9.494;2023-03-14T00:28:02;2.87;;;1.30;;
57615;SDS011;43816;52.054;-9.494;2023-03-14T00:28:13;3.07;;;1.47;;
57615;SDS011;43816;52.054;-9.494;2023-03-14T00:28:23;2.47;;;1.30;;
57615;SDS011;43816;52.054;-9.494;2023-03-14T00:28:34;2.67;;;1.40;;
57615;SDS011;43816;52.054;-9.494;2023-03-14T00:28:44;2.70;;;1.40;;
57615;SDS011;43816;52.054;-9.494;2023-03-14T00:28:55;3.05;;;1.48;;
57615;SDS011;43816;52.054;-9.494;2023-03-14T00:29:06;2.97;;;1.23;;
57615;SDS011;43816;52.054;-9.494;2023-03-14T00:29:16;2.67;;;1.20;;
57615;SDS011;43816;52.054;-9.494;2023-03-14T00:29:26;2.03;;;1.20;;
57615;SDS011;43816;52.054;-9.494;2023-03-14T00:29:37;1.87;;;1.30;;
57615;SDS011;43816;52.054;-9.494;2023-03-14T00:29:47;2.03;;;1.20;;
57615;SDS011;43816;52.054;-9.494;2023-03-14T00:29:57;2.83;;;1.37;;
57615;SDS011;43816;52.054;-9.494;2023-03-14T00:30:08;2.85;;;1.38;;
57615;SDS011;43816;52.054;-9.494;2023-03-14T00:30:19;3.13;;;1.40;;
57615;SDS011;43816;52.054;-9.494;2023-03-14T00:30:29;3.03;;;1.37;;
57615;SDS011;43816;52.054;-9.494;2023-03-14T00:30:39;3.05;;;1.50;;
57615;SDS011;43816;52.054;-9.494;2023-03-14T00:30:50;2.83;;;1.60;;
57615;SDS011;43816;52.054;-9.494;2023-03-14T00:31:03;2.60;;;1.40;;
57615;SDS011;43816;52.054;-9.494;2023-03-14T00:31:15;2.30;;;1.27;;
57615;SDS011;43816;52.054;-9.494;2023-03-14T00:31:26;2.83;;;1.40;;
57615;SDS011;43816;52.054;-9.494;2023-03-14T00:31:36;3.10;;;1.50;;
57615;SDS011;43816;52.054;-9.494;2023-03-14T00:31:46;3.20;;;1.48;;
57615;SDS011;43816;52.054;-9.494;2023-03-14T00:31:57;2.73;;;1.40;;
57615;SDS011;43816;52.054;-9.494;2023-03-14T00:32:07;2.70;;;1.30;;
57615;SDS011;43816;52.054;-9.494;2023-03-14T00:32:17;2.47;;;1.30;;
57615;SDS011;43816;52.054;-9.494;2023-03-14T00:32:27;2.80;;;1.30;;
57615;SDS011;43816;52.054;-9.494;2023-03-14T00:32:38;2.63;;;1.30;;
57615;SDS011;43816;52.054;-9.494;2023-03-14T00:32:48;2.65;;;1.20;;
57615;SDS011;43816;52.054;-9.494;2023-03-14T00:32:58;2.70;;;1.10;;
57615;SDS011;43816;52.054;-9.494;2023-03-14T00:33:09;3.13;;;1.23;;
57615;SDS011;43816;52.054;-9.494;2023-03-14T00:33:19;3.80;;;1.40;;
57615;SDS011;43816;52.054;-9.494;2023-03-14T00:33:29;3.78;;;1.60;;
57615;SDS011;43816;52.054;-9.494;2023-03-14T00:33:40;3.37;;;1.50;;
57615;SDS011;43816;52.054;-9.494;2023-03-14T00:33:52;2.58;;;1.35;;
57615;SDS011;43816;52.054;-9.494;2023-03-14T00:34:03;2.15;;;1.15;;
57615;SDS011;43816;52.054;-9.494;2023-03-14T00:34:13;2.15;;;1.30;;
57615;SDS011;43816;52.054;-9.494;2023-03-14T00:34:23;2.63;;;1.37;;
57615;SDS011;43816;52.054;-9.494;2023-03-14T00:34:38;2.75;;;1.33;;
57615;SDS011;43816;52.054;-9.494;2023-03-14T00:34:48;3.40;;;1.38;;
57615;SDS011;43816;52.054;-9.494;2023-03-14T00:34:59;3.63;;;1.57;;
57615;SDS011;43816;52.054;-9.494;2023-03-14T00:35:09;3.80;;;1.80;;
57615;SDS011;43816;52.054;-9.494;2023-03-14T00:35:19;2.93;;;1.50;;
57615;SDS011;43816;52.054;-9.494;2023-03-14T00:35:29;2.50;;;1.20;;
57615;SDS011;43816;52.054;-9.494;2023-03-14T00:35:40;2.25;;;1.02;;
57615;SDS011;43816;52.054;-9.494;2023-03-14T00:35:56;2.43;;;1.30;;
57615;SDS011;43816;52.054;-9.494;2023-03-14T00:36:09;2.30;;;1.30;;
57615;SDS011;43816;52.054;-9.494;2023-03-14T00:36:22;1.80;;;1.20;;
57615;SDS011;43816;52.054;-9.494;2023-03-14T00:36:33;1.80;;;1.17;;
57615;SDS011;43816;52.054;-9.494;2023-03-14T00:36:44;1.90;;;1.20;;
57615;SDS011;43816;52.054;-9.494;2023-03-14T00:36:54;2.40;;;1.20;;
57615;SDS011;43816;52.054;-9.494;2023-03-14T00:37:05;2.57;;;1.30;;
57615;SDS011;43816;52.054;-9.494;2023-03-14T00:37:16;2.47;;;1.38;;
57615;SDS011;43816;52.054;-9.494;2023-03-14T00:37:26;2.57;;;1.47;;
57615;SDS011;43816;52.054;-9.494;2023-03-14T00:37:37;3.40;;;1.48;;
57615;SDS011;43816;52.054;-9.494;2023-03-14T00:37:47;3.65;;;1.48;;
57615;SDS011;43816;52.054;-9.494;2023-03-14T00:37:57;3.57;;;1.50;;
57615;SDS011;43816;52.054;-9.494;2023-03-14T00:38:08;2.87;;;1.43;;
57615;SDS011;43816;52.054;-9.494;2023-03-14T00:38:18;2.80;;;1.35;;
57615;SDS011;43816;52.054;-9.494;2023-03-14T00:38:29;2.63;;;1.23;;
57615;SDS011;43816;52.054;-9.494;2023-03-14T00:38:41;2.42;;;1.20;;
57615;SDS011;43816;52.054;-9.494;2023-03-14T00:38:53;2.88;;;1.40;;
57615;SDS011;43816;52.054;-9.494;2023-03-14T00:39:04;2.58;;;1.34;;
57615;SDS011;43816;52.054;-9.494;2023-03-14T00:39:14;2.47;;;1.30;;
57615;SDS011;43816;52.054;-9.494;2023-03-14T00:39:24;2.57;;;1.20;;
57615;SDS011;43816;52.054;-9.494;2023-03-14T00:39:35;2.53;;;1.30;;
57615;SDS011;43816;52.054;-9.494;2023-03-14T00:39:45;2.67;;;1.40;;
57615;SDS011;43816;52.054;-9.494;2023-03-14T00:39:55;2.80;;;1.50;;
57615;SDS011;43816;52.054;-9.494;2023-03-14T00:40:06;3.40;;;1.40;;
57615;SDS011;43816;52.054;-9.494;2023-03-14T00:40:17;3.10;;;1.30;;
57615;SDS011;43816;52.054;-9.494;2023-03-14T00:40:27;2.60;;;1.10;;
57615;SDS011;43816;52.054;-9.494;2023-03-14T00:40:38;2.07;;;1.00;;
57615;SDS011;43816;52.054;-9.494;2023-03-14T00:40:49;2.22;;;0.95;;
57615;SDS011;43816;52.054;-9.494;2023-03-14T00:41:04;2.55;;;1.20;;
57615;SDS011;43816;52.054;-9.494;2023-03-14T00:41:16;2.35;;;1.33;;
57615;SDS011;43816;52.054;-9.494;2023-03-14T00:41:28;3.20;;;1.33;;
57615;SDS011;43816;52.054;-9.494;2023-03-14T00:41:38;3.13;;;1.30;;
57615;SDS011;43816;52.054;-9.494;2023-03-14T00:41:49;3.27;;;1.30;;
57615;SDS011;43816;52.054;-9.494;2023-03-14T00:41:59;2.50;;;1.20;;
57615;SDS011;43816;52.054;-9.494;2023-03-14T00:42:09;2.65;;;1.17;;
57615;SDS011;43816;52.054;-9.494;2023-03-14T00:42:20;3.00;;;1.20;;
57615;SDS011;43816;52.054;-9.494;2023-03-14T00:42:30;2.67;;;1.30;;
57615;SDS011;43816;52.054;-9.494;2023-03-14T00:42:40;2.55;;;1.38;;
57615;SDS011;43816;52.054;-9.494;2023-03-14T00:42:51;2.30;;;1.30;;
57615;SDS011;43816;52.054;-9.494;2023-03-14T00:43:01;2.27;;;1.27;;
57615;SDS011;43816;52.054;-9.494;2023-03-14T00:43:11;2.10;;;1.20;;
57615;SDS011;43816;52.054;-9.494;2023-03-14T00:43:22;1.93;;;1.10;;
57615;SDS011;43816;52.054;-9.494;2023-03-14T00:43:32;2.35;;;1.17;;
57615;SDS011;43816;52.054;-9.494;2023-03-14T00:43:43;2.23;;;1.20;;
57615;SDS011;43816;52.054;-9.494;2023-03-14T00:43:53;2.42;;;1.20;;
57615;SDS011;43816;52.054;-9.494;2023-03-14T00:44:03;2.30;;;1.20;;
57615;SDS011;43816;52.054;-9.494;2023-03-14T00:44:14;2.60;;;1.30;;
57615;SDS011;43816;52.054;-9.494;2023-03-14T00:44:24;2.60;;;1.30;;
57615;SDS011;43816;52.054;-9.494;2023-03-14T00:44:34;2.37;;;1.23;;
57615;SDS011;43816;52.054;-9.494;2023-03-14T00:44:45;2.43;;;1.30;;
57615;SDS011;43816;52.054;-9.494;2023-03-14T00:44:55;2.00;;;1.15;;
57615;SDS011;43816;52.054;-9.494;2023-03-14T00:45:05;2.20;;;1.20;;
57615;SDS011;43816;52.054;-9.494;2023-03-14T00:45:16;2.22;;;1.27;;
57615;SDS011;43816;52.054;-9.494;2023-03-14T00:45:26;2.47;;;1.40;;
57615;SDS011;43816;52.054;-9.494;2023-03-14T00:45:37;2.58;;;1.40;;
57615;SDS011;43816;52.054;-9.494;2023-03-14T00:45:50;2.60;;;1.23;;
57615;SDS011;43816;52.054;-9.494;2023-03-14T00:46:01;2.42;;;1.10;;
57615;SDS011;43816;52.054;-9.494;2023-03-14T00:46:12;2.45;;;1.20;;
57615;SDS011;43816;52.054;-9.494;2023-03-14T00:46:22;2.53;;;1.27;;
57615;SDS011;43816;52.054;-9.494;2023-03-14T00:46:33;2.50;;;1.20;;
57615;SDS011;43816;52.054;-9.494;2023-03-14T00:46:43;3.03;;;1.30;;
57615;SDS011;43816;52.054;-9.494;2023-03-14T00:46:53;2.88;;;1.25;;
57615;SDS011;43816;52.054;-9.494;2023-03-14T00:47:04;2.47;;;1.20;;
57615;SDS011;43816;52.054;-9.494;2023-03-14T00:47:14;1.67;;;1.10;;
57615;SDS011;43816;52.054;-9.494;2023-03-14T00:47:24;1.58;;;1.08;;
57615;SDS011;43816;52.054;-9.494;2023-03-14T00:47:35;2.17;;;1.10;;
57615;SDS011;43816;52.054;-9.494;2023-03-14T00:47:45;2.50;;;1.10;;
57615;SDS011;43816;52.054;-9.494;2023-03-14T00:47:55;3.15;;;1.10;;
57615;SDS011;43816;52.054;-9.494;2023-03-14T00:48:06;2.90;;;1.20;;
57615;SDS011;43816;52.054;-9.494;2023-03-14T00:48:16;2.77;;;1.30;;
57615;SDS011;43816;52.054;-9.494;2023-03-14T00:48:27;2.58;;;1.30;;
57615;SDS011;43816;52.054;-9.494;2023-03-14T00:48:38;2.37;;;1.30;;
57615;SDS011;43816;52.054;-9.494;2023-03-14T00:48:49;2.28;;;1.20;;
57615;SDS011;43816;52.054;-9.494;2023-03-14T00:48:59;2.17;;;1.40;;
57615;SDS011;43816;52.054;-9.494;2023-03-14T00:49:09;2.80;;;1.60;;
57615;SDS011;43816;52.054;-9.494;2023-03-14T00:49:20;3.33;;;1.60;;
57615;SDS011;43816;52.054;-9.494;2023-03-14T00:49:30;3.40;;;1.53;;
57615;SDS011;43816;52.054;-9.494;2023-03-14T00:49:40;2.90;;;1.30;;
57615;SDS011;43816;52.054;-9.494;2023-03-14T00:49:50;2.20;;;1.13;;
57615;SDS011;43816;52.054;-9.494;2023-03-14T00:50:01;2.20;;;1.10;;
57615;SDS011;43816;52.054;-9.494;2023-03-14T00:50:11;2.25;;;1.15;;
57615;SDS011;43816;52.054;-9.494;2023-03-14T00:50:21;2.80;;;1.27;;
57615;SDS011;43816;52.054;-9.494;2023-03-14T00:50:32;3.35;;;1.27;;
57615;SDS011;43816;52.054;-9.494;2023-03-14T00:50:42;3.07;;;1.20;;
57615;SDS011;43816;52.054;-9.494;2023-03-14T00:50:52;2.73;;;1.33;;
57615;SDS011;43816;52.054;-9.494;2023-03-14T00:51:03;2.72;;;1.40;;
57615;SDS011;43816;52.054;-9.494;2023-03-14T00:51:15;3.05;;;1.40;;
57615;SDS011;43816;52.054;-9.494;2023-03-14T00:51:26;3.28;;;1.55;;
57615;SDS011;43816;52.054;-9.494;2023-03-14T00:51:36;2.60;;;1.50;;
57615;SDS011;43816;52.054;-9.494;2023-03-14T00:51:46;2.83;;;1.47;;
57615;SDS011;43816;52.054;-9.494;2023-03-14T00:51:56;2.75;;;1.40;;
57615;SDS011;43816;52.054;-9.494;2023-03-14T00:52:07;3.00;;;1.50;;
57615;SDS011;43816;52.054;-9.494;2023-03-14T00:52:17;3.17;;;1.60;;
57615;SDS011;43816;52.054;-9.494;2023-03-14T00:52:27;3.05;;;1.50;;
57615;SDS011;43816;52.054;-9.494;2023-03-14T00:52:38;4.13;;;1.57;;
57615;SDS011;43816;52.054;-9.494;2023-03-14T00:52:48;3.97;;;1.40;;
57615;SDS011;43816;52.054;-9.494;2023-03-14T00:52:58;3.80;;;1.47;;
57615;SDS011;43816;52.054;-9.494;2023-03-14T00:53:09;2.80;;;1.30;;
57615;SDS011;43816;52.054;-9.494;2023-03-14T00:53:19;3.00;;;1.37;;
57615;SDS011;43816;52.054;-9.494;2023-03-14T00:53:29;3.28;;;1.40;;
57615;SDS011;43816;52.054;-9.494;2023-03-14T00:53:40;3.47;;;1.40;;
57615;SDS011;43816;52.054;-9.494;2023-03-14T00:53:51;2.80;;;1.20;;
57615;SDS011;43816;52.054;-9.494;2023-03-14T00:54:01;2.60;;;1.17;;
57615;SDS011;43816;52.054;-9.494;2023-03-14T00:54:12;2.37;;;1.10;;
57615;SDS011;43816;52.054;-9.494;2023-03-14T00:54:22;2.57;;;1.20;;
57615;SDS011;43816;52.054;-9.494;2023-03-14T00:54:32;2.90;;;1.37;;
57615;SDS011;43816;52.054;-9.494;2023-03-14T00:54:42;3.40;;;1.33;;
57615;SDS011;43816;52.054;-9.494;2023-03-14T00:54:53;3.45;;;1.30;;
57615;SDS011;43816;52.054;-9.494;2023-03-14T00:55:03;3.33;;;1.27;;
57615;SDS011;43816;52.054;-9.494;2023-03-14T00:55:14;2.85;;;1.30;;
57615;SDS011;43816;52.054;-9.494;2023-03-14T00:55:24;3.00;;;1.37;;
57615;SDS011;43816;52.054;-9.494;2023-03-14T00:55:39;3.38;;;1.40;;
57615;SDS011;43816;52.054;-9.494;2023-03-14T00:55:50;3.17;;;1.48;;
57615;SDS011;43816;52.054;-9.494;2023-03-14T00:56:04;3.70;;;1.47;;
57615;SDS011;43816;52.054;-9.494;2023-03-14T00:56:16;4.00;;;1.50;;
57615;SDS011;43816;52.054;-9.494;2023-03-14T00:56:27;4.68;;;1.80;;
57615;SDS011;43816;52.054;-9.494;2023-03-14T00:56:37;4.87;;;1.87;;
57615;SDS011;43816;52.054;-9.494;2023-03-14T00:56:47;5.13;;;1.93;;
57615;SDS011;43816;52.054;-9.494;2023-03-14T00:56:57;4.38;;;1.60;;
57615;SDS011;43816;52.054;-9.494;2023-03-14T00:57:08;3.47;;;1.30;;
57615;SDS011;43816;52.054;-9.494;2023-03-14T00:57:18;3.33;;;1.20;;
57615;SDS011;43816;52.054;-9.494;2023-03-14T00:57:28;3.53;;;1.30;;
57615;SDS011;43816;52.054;-9.494;2023-03-14T00:57:39;3.75;;;1.42;;
57615;SDS011;43816;52.054;-9.494;2023-03-14T00:57:49;3.57;;;1.50;;
57615;SDS011;43816;52.054;-9.494;2023-03-14T00:57:59;3.58;;;1.42;;
57615;SDS011;43816;52.054;-9.494;2023-03-14T00:58:10;3.63;;;1.43;;
57615;SDS011;43816;52.054;-9.494;2023-03-14T00:58:23;3.75;;;1.40;;
57615;SDS011;43816;52.054;-9.494;2023-03-14T00:58:33;4.03;;;1.55;;
57615;SDS011;43816;52.054;-9.494;2023-03-14T00:58:43;3.47;;;1.50;;
57615;SDS011;43816;52.054;-9.494;2023-03-14T00:58:54;3.80;;;1.53;;
57615;SDS011;43816;52.054;-9.494;2023-03-14T00:59:05;3.30;;;1.40;;
57615;SDS011;43816;52.054;-9.494;2023-03-14T00:59:15;3.25;;;1.35;;
57615;SDS011;43816;52.054;-9.494;2023-03-14T00:59:26;3.27;;;1.30;;
57615;SDS011;43816;52.054;-9.494;2023-03-14T00:59:37;3.33;;;1.30;;
57615;SDS011;43816;52.054;-9.494;2023-03-14T00:59:47;3.13;;;1.30;;
57615;SDS011;43816;52.054;-9.494;2023-03-14T00:59:57;2.87;;;1.30;;
57615;SDS011;43816;52.054;-9.494;2023-03-14T01:00:08;3.13;;;1.40;;
57615;SDS011;43816;52.054;-9.494;2023-03-14T01:00:19;3.22;;;1.40;;
57615;SDS011;43816;52.054;-9.494;2023-03-14T01:00:29;3.20;;;1.42;;
57615;SDS011;43816;52.054;-9.494;2023-03-14T01:00:40;2.73;;;1.50;;
57615;SDS011;43816;52.054;-9.494;2023-03-14T01:00:51;2.90;;;1.45;;
57615;SDS011;43816;52.054;-9.494;2023-03-14T01:01:20;2.93;;;1.50;;
57615;SDS011;43816;52.054;-9.494;2023-03-14T01:01:30;3.13;;;1.48;;
57615;SDS011;43816;52.054;-9.494;2023-03-14T01:01:40;2.80;;;1.33;;
57615;SDS011;43816;52.054;-9.494;2023-03-14T01:01:51;2.38;;;1.30;;
57615;SDS011;43816;52.054;-9.494;2023-03-14T01:02:01;2.67;;;1.40;;
57615;SDS011;43816;52.054;-9.494;2023-03-14T01:02:11;2.50;;;1.40;;
57615;SDS011;43816;52.054;-9.494;2023-03-14T01:02:22;2.50;;;1.40;;
57615;SDS011;43816;52.054;-9.494;2023-03-14T01:02:32;2.67;;;1.37;;
57615;SDS011;43816;52.054;-9.494;2023-03-14T01:02:42;2.97;;;1.37;;
57615;SDS011;43816;52.054;-9.494;2023-03-14T01:02:53;3.40;;;1.40;;
57615;SDS011;43816;52.054;-9.494;2023-03-14T01:03:03;4.17;;;1.60;;
57615;SDS011;43816;52.054;-9.494;2023-03-14T01:03:14;3.92;;;1.70;;
57615;SDS011;43816;52.054;-9.494;2023-03-14T01:03:25;4.30;;;1.90;;
57615;SDS011;43816;52.054;-9.494;2023-03-14T01:03:35;3.80;;;1.70;;
57615;SDS011;43816;52.054;-9.494;2023-03-14T01:03:46;4.50;;;1.73;;
57615;SDS011;43816;52.054;-9.494;2023-03-14T01:03:56;4.20;;;1.52;;
57615;SDS011;43816;52.054;-9.494;2023-03-14T01:04:07;4.17;;;1.47;;
57615;SDS011;43816;52.054;-9.494;2023-03-14T01:04:17;3.40;;;1.40;;
57615;SDS011;43816;52.054;-9.494;2023-03-14T01:04:28;3.17;;;1.40;;
57615;SDS011;43816;52.054;-9.494;2023-03-14T01:04:38;2.58;;;1.50;;
57615;SDS011;43816;52.054;-9.494;2023-03-14T01:04:48;2.37;;;1.50;;
57615;SDS011;43816;52.054;-9.494;2023-03-14T01:04:59;2.67;;;1.60;;
57615;SDS011;43816;52.054;-9.494;2023-03-14T01:05:09;3.22;;;1.48;;
57615;SDS011;43816;52.054;-9.494;2023-03-14T01:05:21;4.10;;;1.63;;
57615;SDS011;43816;52.054;-9.494;2023-03-14T01:05:32;4.32;;;1.60;;